createdAt,value
2018-06-04T00:00:10.095Z,0.00
2018-06-04T00:01:10.067Z,0.00
2018-06-04T00:02:10.035Z,0.00
2018-06-04T00:03:09.999Z,0.00
2018-06-04T00:04:09.965Z,0.00
2018-06-04T00:05:09.930Z,0.00
2018-06-04T00:06:09.899Z,0.00
2018-06-04T00:07:09.863Z,0.00
2018-06-04T00:08:09.838Z,0.00
2018-06-04T00:09:09.804Z,0.00
2018-06-04T00:10:09.771Z,0.00
2018-06-04T00:11:09.743Z,0.00
2018-06-04T00:12:09.704Z,0.00
2018-06-04T00:13:09.677Z,0.00
2018-06-04T00:14:09.638Z,0.00
2018-06-04T00:15:09.613Z,0.00
2018-06-04T00:16:09.574Z,0.00
2018-06-04T00:17:09.544Z,0.00
2018-06-04T00:18:09.537Z,0.00
2018-06-04T00:19:09.477Z,0.00
2018-06-04T00:20:09.450Z,0.00
2018-06-04T00:21:09.417Z,0.00
2018-06-04T00:22:09.383Z,0.00
2018-06-04T00:23:09.351Z,0.00
2018-06-04T00:24:09.313Z,0.00
2018-06-04T00:25:09.290Z,0.00
2018-06-04T00:26:09.252Z,0.00
2018-06-04T00:27:09.218Z,0.00
2018-06-04T00:28:09.193Z,0.00
2018-06-04T00:29:09.157Z,0.00
2018-06-04T00:30:09.121Z,0.00
2018-06-04T00:31:09.087Z,0.00
2018-06-04T00:32:09.064Z,0.00
2018-06-04T00:33:09.031Z,0.00
2018-06-04T00:34:08.993Z,0.00
2018-06-04T00:35:08.962Z,0.00
2018-06-04T00:36:08.923Z,0.00
2018-06-04T00:37:08.896Z,0.00
2018-06-04T00:38:08.863Z,0.00
2018-06-04T00:39:08.826Z,0.00
2018-06-04T00:40:08.800Z,0.00
2018-06-04T00:41:08.770Z,0.00
2018-06-04T00:42:08.733Z,0.00
2018-06-04T00:43:08.703Z,0.00
2018-06-04T00:44:08.668Z,0.00
2018-06-04T00:45:08.635Z,0.00
2018-06-04T00:46:08.603Z,0.00
2018-06-04T00:47:08.574Z,0.00
2018-06-04T00:48:08.535Z,0.00
2018-06-04T00:49:08.505Z,0.00
2018-06-04T00:50:08.478Z,0.00
2018-06-04T00:51:08.434Z,0.00
2018-06-04T00:52:08.409Z,0.00
2018-06-04T00:53:08.377Z,0.00
2018-06-04T00:54:08.345Z,0.00
2018-06-04T00:55:08.311Z,0.00
2018-06-04T00:56:08.274Z,0.00
2018-06-04T00:57:08.248Z,0.00
2018-06-04T00:58:08.212Z,0.00
2018-06-04T00:59:08.183Z,0.00
2018-06-04T01:00:08.151Z,0.00
2018-06-04T01:01:08.116Z,0.00
2018-06-04T01:02:08.086Z,0.00
2018-06-04T01:03:08.048Z,0.00
2018-06-04T01:04:08.024Z,0.00
2018-06-04T01:05:07.987Z,0.00
2018-06-04T01:06:07.952Z,0.00
2018-06-04T01:07:07.923Z,0.00
2018-06-04T01:08:07.884Z,0.00
2018-06-04T01:09:07.854Z,0.00
2018-06-04T01:10:07.830Z,0.00
2018-06-04T01:11:07.786Z,0.00
2018-06-04T01:12:07.761Z,0.00
2018-06-04T01:13:07.726Z,0.00
2018-06-04T01:14:07.693Z,0.00
2018-06-04T01:15:07.662Z,0.00
2018-06-04T01:16:07.624Z,0.00
2018-06-04T01:17:07.595Z,0.00
2018-06-04T01:18:07.561Z,0.00
2018-06-04T01:19:07.532Z,0.00
2018-06-04T01:20:07.493Z,0.00
2018-06-04T01:21:07.466Z,0.00
2018-06-04T01:22:07.431Z,0.00
2018-06-04T01:23:07.396Z,0.00
2018-06-04T01:24:07.368Z,0.00
2018-06-04T01:25:07.339Z,0.00
2018-06-04T01:26:07.302Z,0.00
2018-06-04T01:27:07.274Z,0.00
2018-06-04T01:28:07.232Z,0.00
2018-06-04T01:29:07.201Z,0.00
2018-06-04T01:30:07.171Z,0.00
2018-06-04T01:31:07.132Z,0.00
2018-06-04T01:32:07.109Z,0.00
2018-06-04T01:33:07.074Z,0.00
2018-06-04T01:34:07.044Z,0.00
2018-06-04T01:35:07.005Z,0.00
2018-06-04T01:36:06.975Z,0.00
2018-06-04T01:37:06.944Z,0.00
2018-06-04T01:38:06.907Z,0.00
2018-06-04T01:39:06.877Z,0.00
2018-06-04T01:40:06.839Z,0.00
2018-06-04T01:41:06.810Z,0.00
2018-06-04T01:42:06.777Z,0.00
2018-06-04T01:43:06.739Z,0.00
2018-06-04T01:44:06.712Z,0.00
2018-06-04T01:45:06.680Z,0.00
2018-06-04T01:46:06.647Z,0.00
2018-06-04T01:47:06.616Z,0.00
2018-06-04T01:48:06.584Z,0.00
2018-06-04T01:49:06.551Z,0.00
2018-06-04T01:50:06.515Z,0.00
2018-06-04T01:51:06.487Z,0.00
2018-06-04T01:52:06.449Z,0.00
2018-06-04T01:53:06.423Z,0.00
2018-06-04T01:54:06.382Z,0.00
2018-06-04T01:55:06.350Z,0.00
2018-06-04T01:56:06.319Z,0.00
2018-06-04T01:57:06.286Z,0.00
2018-06-04T01:58:06.252Z,0.00
2018-06-04T01:59:06.221Z,0.00
2018-06-04T02:00:06.183Z,0.00
2018-06-04T02:01:06.152Z,0.00
2018-06-04T02:02:06.116Z,0.00
2018-06-04T02:03:06.083Z,0.00
2018-06-04T02:04:06.057Z,0.00
2018-06-04T02:05:06.022Z,0.00
2018-06-04T02:06:05.988Z,0.00
2018-06-04T02:07:05.953Z,0.00
2018-06-04T02:08:05.927Z,0.00
2018-06-04T02:09:05.892Z,0.00
2018-06-04T02:10:05.856Z,0.00
2018-06-04T02:11:05.827Z,0.00
2018-06-04T02:12:05.789Z,0.00
2018-06-04T02:13:05.757Z,0.00
2018-06-04T02:14:05.727Z,0.00
2018-06-04T02:15:05.693Z,0.00
2018-06-04T02:16:05.665Z,0.00
2018-06-04T02:17:05.626Z,0.00
2018-06-04T02:18:05.596Z,0.00
2018-06-04T02:19:05.562Z,0.00
2018-06-04T02:20:05.524Z,0.00
2018-06-04T02:21:05.493Z,0.00
2018-06-04T02:22:05.463Z,0.00
2018-06-04T02:23:05.432Z,0.00
2018-06-04T02:24:05.390Z,0.00
2018-06-04T02:25:05.361Z,0.00
2018-06-04T02:26:05.327Z,0.00
2018-06-04T02:27:05.294Z,0.00
2018-06-04T02:28:05.264Z,0.00
2018-06-04T02:29:05.232Z,0.00
2018-06-04T02:30:05.198Z,0.00
2018-06-04T02:31:05.170Z,0.00
2018-06-04T02:32:05.125Z,0.00
2018-06-04T02:33:05.097Z,0.00
2018-06-04T02:34:05.060Z,0.00
2018-06-04T02:35:05.028Z,0.00
2018-06-04T02:36:05.001Z,0.00
2018-06-04T02:37:04.968Z,0.00
2018-06-04T02:38:04.933Z,0.00
2018-06-04T02:39:04.895Z,0.00
2018-06-04T02:40:04.868Z,0.00
2018-06-04T02:41:04.835Z,0.00
2018-06-04T02:42:04.809Z,0.00
2018-06-04T02:43:04.769Z,4.00
2018-06-04T02:44:04.734Z,4.00
2018-06-04T02:45:04.698Z,0.00
2018-06-04T02:46:04.664Z,0.00
2018-06-04T02:47:04.629Z,0.00
2018-06-04T02:48:04.602Z,4.00
2018-06-04T02:49:04.567Z,4.00
2018-06-04T02:50:04.608Z,0.00
2018-06-04T02:51:04.502Z,4.00
2018-06-04T02:52:05.348Z,4.00
2018-06-04T02:53:04.430Z,4.00
2018-06-04T02:54:04.400Z,4.00
2018-06-04T02:55:04.371Z,4.00
2018-06-04T02:56:04.330Z,8.00
2018-06-04T02:57:04.299Z,8.00
2018-06-04T02:58:04.264Z,8.00
2018-06-04T02:59:04.228Z,8.00
2018-06-04T03:00:04.206Z,8.00
2018-06-04T03:01:04.171Z,12.00
2018-06-04T03:02:04.183Z,12.00
2018-06-04T03:03:04.147Z,12.00
2018-06-04T03:04:04.062Z,12.00
2018-06-04T03:05:04.031Z,16.00
2018-06-04T03:06:04.003Z,16.00
2018-06-04T03:07:03.964Z,20.00
2018-06-04T03:08:03.936Z,20.00
2018-06-04T03:09:03.900Z,28.00
2018-06-04T03:10:03.867Z,28.00
2018-06-04T03:11:03.831Z,32.00
2018-06-04T03:12:03.802Z,36.00
2018-06-04T03:13:03.771Z,40.00
2018-06-04T03:14:03.737Z,40.00
2018-06-04T03:15:03.703Z,44.00
2018-06-04T03:16:03.661Z,48.00
2018-06-04T03:17:03.633Z,52.00
2018-06-04T03:18:03.597Z,60.00
2018-06-04T03:19:03.564Z,60.00
2018-06-04T03:20:03.535Z,68.00
2018-06-04T03:21:03.499Z,72.00
2018-06-04T03:22:03.467Z,80.00
2018-06-04T03:23:03.435Z,84.00
2018-06-04T03:24:03.393Z,88.00
2018-06-04T03:25:03.364Z,100.00
2018-06-04T03:26:03.333Z,104.00
2018-06-04T03:27:03.300Z,112.00
2018-06-04T03:28:03.260Z,124.00
2018-06-04T03:29:03.234Z,132.00
2018-06-04T03:30:03.197Z,140.00
2018-06-04T03:31:03.161Z,152.00
2018-06-04T03:32:03.135Z,164.00
2018-06-04T03:33:03.100Z,172.00
2018-06-04T03:34:03.067Z,184.00
2018-06-04T03:35:03.031Z,192.00
2018-06-04T03:36:02.994Z,204.00
2018-06-04T03:37:02.960Z,216.00
2018-06-04T03:38:02.933Z,228.00
2018-06-04T03:39:02.894Z,244.00
2018-06-04T03:40:02.867Z,256.00
2018-06-04T03:41:02.832Z,272.00
2018-06-04T03:42:02.793Z,284.00
2018-06-04T03:43:02.759Z,296.00
2018-06-04T03:44:02.732Z,312.00
2018-06-04T03:45:02.704Z,324.00
2018-06-04T03:46:02.665Z,340.00
2018-06-04T03:47:02.636Z,352.00
2018-06-04T03:48:02.591Z,372.00
2018-06-04T03:49:02.561Z,384.00
2018-06-04T03:50:02.527Z,400.00
2018-06-04T03:51:02.493Z,416.00
2018-06-04T03:52:02.500Z,432.00
2018-06-04T03:53:02.429Z,448.00
2018-06-04T03:54:02.391Z,456.00
2018-06-04T03:55:02.367Z,460.00
2018-06-04T03:56:02.327Z,464.00
2018-06-04T03:57:02.293Z,472.00
2018-06-04T03:58:02.263Z,480.00
2018-06-04T03:59:02.230Z,488.00
2018-06-04T04:00:02.191Z,496.00
2018-06-04T04:01:02.158Z,508.00
2018-06-04T04:02:02.129Z,512.00
2018-06-04T04:03:02.092Z,524.00
2018-06-04T04:04:02.062Z,536.00
2018-06-04T04:05:02.031Z,556.00
2018-06-04T04:06:01.995Z,584.00
2018-06-04T04:07:01.966Z,608.00
2018-06-04T04:08:01.923Z,644.00
2018-06-04T04:09:01.897Z,688.00
2018-06-04T04:10:01.860Z,728.00
2018-06-04T04:11:01.821Z,776.00
2018-06-04T04:12:01.805Z,828.00
2018-06-04T04:13:01.760Z,892.00
2018-06-04T04:14:01.729Z,952.00
2018-06-04T04:15:01.688Z,1000.00
2018-06-04T04:16:01.664Z,1036.00
2018-06-04T04:17:01.628Z,1084.00
2018-06-04T04:18:01.591Z,1120.00
2018-06-04T04:19:01.563Z,1152.00
2018-06-04T04:20:01.522Z,1200.00
2018-06-04T04:21:01.493Z,1244.00
2018-06-04T04:22:01.459Z,1284.00
2018-06-04T04:23:01.421Z,1324.00
2018-06-04T04:24:01.397Z,1364.00
2018-06-04T04:25:01.363Z,1400.00
2018-06-04T04:26:01.335Z,1436.00
2018-06-04T04:27:01.296Z,1468.00
2018-06-04T04:28:01.285Z,1500.00
2018-06-04T04:29:01.227Z,1520.00
2018-06-04T04:30:01.196Z,1544.00
2018-06-04T04:31:01.163Z,1564.00
2018-06-04T04:32:01.126Z,1576.00
2018-06-04T04:33:01.095Z,1592.00
2018-06-04T04:34:01.060Z,1592.00
2018-06-04T04:35:01.026Z,1596.00
2018-06-04T04:36:00.998Z,1644.00
2018-06-04T04:37:00.965Z,1712.00
2018-06-04T04:38:00.930Z,1768.00
2018-06-04T04:39:00.897Z,1816.00
2018-06-04T04:40:00.860Z,1840.00
2018-06-04T04:41:00.827Z,1872.00
2018-06-04T04:42:00.797Z,1896.00
2018-06-04T04:43:00.760Z,1944.00
2018-06-04T04:44:00.735Z,1948.00
2018-06-04T04:45:00.701Z,2040.00
2018-06-04T04:46:00.664Z,2092.00
2018-06-04T04:47:00.630Z,2128.00
2018-06-04T04:48:00.602Z,2156.00
2018-06-04T04:49:00.567Z,2192.00
2018-06-04T04:50:00.536Z,2216.00
2018-06-04T04:51:00.505Z,2248.00
2018-06-04T04:52:00.463Z,2280.00
2018-06-04T04:53:00.434Z,2304.00
2018-06-04T04:54:00.400Z,2324.00
2018-06-04T04:55:00.367Z,2348.00
2018-06-04T04:56:00.341Z,2372.00
2018-06-04T04:57:00.305Z,2392.00
2018-06-04T04:58:00.274Z,2408.00
2018-06-04T04:59:00.242Z,2356.00
2018-06-04T05:00:00.200Z,2336.00
2018-06-04T05:01:00.173Z,2488.00
2018-06-04T05:02:00.141Z,2528.00
2018-06-04T05:03:00.109Z,2548.00
2018-06-04T05:04:00.076Z,2564.00
2018-06-04T05:05:00.042Z,2580.00
2018-06-04T05:06:00.015Z,2624.00
2018-06-04T05:06:59.975Z,2660.00
2018-06-04T05:07:59.948Z,2688.00
2018-06-04T05:08:59.914Z,2708.00
2018-06-04T05:09:59.881Z,2728.00
2018-06-04T05:10:59.849Z,2676.00
2018-06-04T05:11:59.814Z,2776.00
2018-06-04T05:12:59.782Z,2832.00
2018-06-04T05:13:59.750Z,2852.00
2018-06-04T05:14:59.714Z,2888.00
2018-06-04T05:15:59.691Z,2916.00
2018-06-04T05:16:59.655Z,2928.00
2018-06-04T05:17:59.619Z,2952.00
2018-06-04T05:18:59.587Z,2980.00
2018-06-04T05:19:59.562Z,3012.00
2018-06-04T05:20:59.526Z,3004.00
2018-06-04T05:21:59.494Z,3040.00
2018-06-04T05:22:59.467Z,3040.00
2018-06-04T05:23:59.427Z,3044.00
2018-06-04T05:24:59.396Z,3088.00
2018-06-04T05:25:59.365Z,3100.00
2018-06-04T05:26:59.896Z,3100.00
2018-06-04T05:27:59.302Z,3120.00
2018-06-04T05:28:59.269Z,3144.00
2018-06-04T05:29:59.234Z,3220.00
2018-06-04T05:30:59.204Z,3264.00
2018-06-04T05:31:59.170Z,3308.00
2018-06-04T05:32:59.137Z,3348.00
2018-06-04T05:33:59.111Z,3388.00
2018-06-04T05:34:59.079Z,3408.00
2018-06-04T05:35:59.042Z,3368.00
2018-06-04T05:36:59.012Z,3468.00
2018-06-04T05:37:58.980Z,3496.00
2018-06-04T05:38:58.944Z,3512.00
2018-06-04T05:39:58.929Z,3544.00
2018-06-04T05:40:58.888Z,3580.00
2018-06-04T05:41:58.855Z,3608.00
2018-06-04T05:42:58.825Z,3632.00
2018-06-04T05:43:58.789Z,3536.00
2018-06-04T05:44:58.758Z,3452.00
2018-06-04T05:45:58.727Z,3632.00
2018-06-04T05:46:58.692Z,3728.00
2018-06-04T05:47:58.665Z,3780.00
2018-06-04T05:48:58.634Z,3828.00
2018-06-04T05:49:58.637Z,3756.00
2018-06-04T05:50:58.563Z,3760.00
2018-06-04T05:51:58.539Z,3812.00
2018-06-04T05:52:58.507Z,3844.00
2018-06-04T05:53:58.477Z,3880.00
2018-06-04T05:54:58.446Z,3896.00
2018-06-04T05:55:58.443Z,3956.00
2018-06-04T05:56:58.378Z,3868.00
2018-06-04T05:57:58.348Z,3940.00
2018-06-04T05:58:58.314Z,4048.00
2018-06-04T05:59:58.288Z,4088.00
2018-06-04T06:00:58.263Z,4112.00
2018-06-04T06:01:58.226Z,4136.00
2018-06-04T06:02:58.194Z,4160.00
2018-06-04T06:03:58.161Z,4180.00
2018-06-04T06:04:58.131Z,4212.00
2018-06-04T06:05:58.106Z,4244.00
2018-06-04T06:06:58.071Z,4256.00
2018-06-04T06:07:58.036Z,4312.00
2018-06-04T06:08:58.007Z,4364.00
2018-06-04T06:09:57.973Z,4416.00
2018-06-04T06:10:57.938Z,4492.00
2018-06-04T06:11:57.918Z,4572.00
2018-06-04T06:12:57.886Z,4692.00
2018-06-04T06:13:57.850Z,4724.00
2018-06-04T06:14:57.821Z,4756.00
2018-06-04T06:15:57.784Z,4736.00
2018-06-04T06:16:57.756Z,4804.00
2018-06-04T06:17:57.724Z,4824.00
2018-06-04T06:18:57.691Z,4940.00
2018-06-04T06:19:57.665Z,4956.00
2018-06-04T06:20:57.639Z,4984.00
2018-06-04T06:21:57.599Z,5028.00
2018-06-04T06:22:57.574Z,5008.00
2018-06-04T06:23:57.541Z,5060.00
2018-06-04T06:24:57.510Z,5184.00
2018-06-04T06:25:57.478Z,5196.00
2018-06-04T06:26:57.453Z,5260.00
2018-06-04T06:27:57.413Z,5256.00
2018-06-04T06:28:57.384Z,5268.00
2018-06-04T06:29:57.353Z,5332.00
2018-06-04T06:30:57.319Z,5352.00
2018-06-04T06:31:57.299Z,5360.00
2018-06-04T06:32:57.264Z,5352.00
2018-06-04T06:33:57.231Z,5368.00
2018-06-04T06:34:57.203Z,5392.00
2018-06-04T06:35:57.168Z,5424.00
2018-06-04T06:36:57.139Z,5468.00
2018-06-04T06:37:57.109Z,5456.00
2018-06-04T06:38:57.081Z,5488.00
2018-06-04T06:39:57.048Z,5484.00
2018-06-04T06:40:57.017Z,5504.00
2018-06-04T06:41:56.992Z,5544.00
2018-06-04T06:42:56.951Z,5556.00
2018-06-04T06:43:56.934Z,5640.00
2018-06-04T06:44:56.897Z,5680.00
2018-06-04T06:45:56.868Z,5796.00
2018-06-04T06:46:56.839Z,5840.00
2018-06-04T06:47:56.800Z,5844.00
2018-06-04T06:48:56.775Z,5864.00
2018-06-04T06:49:56.744Z,5836.00
2018-06-04T06:50:56.711Z,5836.00
2018-06-04T06:51:56.686Z,5888.00
2018-06-04T06:52:56.660Z,5848.00
2018-06-04T06:53:56.623Z,5840.00
2018-06-04T06:54:56.590Z,5880.00
2018-06-04T06:55:56.568Z,5780.00
2018-06-04T06:56:56.541Z,5844.00
2018-06-04T06:57:56.504Z,5792.00
2018-06-04T06:58:56.478Z,5640.00
2018-06-04T06:59:56.441Z,5464.00
2018-06-04T07:00:56.414Z,5340.00
2018-06-04T07:01:56.417Z,5236.00
2018-06-04T07:02:56.352Z,5180.00
2018-06-04T07:03:56.336Z,4980.00
2018-06-04T07:04:56.296Z,4912.00
2018-06-04T07:05:56.267Z,4872.00
2018-06-04T07:06:56.249Z,4888.00
2018-06-04T07:07:56.200Z,4908.00
2018-06-04T07:08:56.177Z,4956.00
2018-06-04T07:09:56.148Z,4992.00
2018-06-04T07:10:56.121Z,5044.00
2018-06-04T07:11:56.082Z,5152.00
2018-06-04T07:12:56.058Z,5256.00
2018-06-04T07:13:56.027Z,5336.00
2018-06-04T07:14:55.993Z,5496.00
2018-06-04T07:15:55.970Z,5720.00
2018-06-04T07:16:55.941Z,5980.00
2018-06-04T07:17:55.911Z,6164.00
2018-06-04T07:18:55.881Z,6348.00
2018-06-04T07:19:55.849Z,6256.00
2018-06-04T07:20:55.822Z,6344.00
2018-06-04T07:21:55.790Z,6312.00
2018-06-04T07:22:55.764Z,6556.00
2018-06-04T07:23:55.736Z,6560.00
2018-06-04T07:24:55.705Z,6472.00
2018-06-04T07:25:55.673Z,6496.00
2018-06-04T07:26:55.641Z,6348.00
2018-06-04T07:27:55.616Z,6444.00
2018-06-04T07:28:55.586Z,6704.00
2018-06-04T07:29:55.556Z,6812.00
2018-06-04T07:30:55.527Z,6952.00
2018-06-04T07:31:55.492Z,6928.00
2018-06-04T07:32:55.467Z,7028.00
2018-06-04T07:33:55.436Z,6940.00
2018-06-04T07:34:55.456Z,6872.00
2018-06-04T07:35:55.383Z,6988.00
2018-06-04T07:36:55.352Z,6976.00
2018-06-04T07:37:55.321Z,6856.00
2018-06-04T07:38:55.292Z,6800.00
2018-06-04T07:39:55.260Z,6728.00
2018-06-04T07:40:55.232Z,6732.00
2018-06-04T07:41:55.206Z,6860.00
2018-06-04T07:42:55.173Z,6824.00
2018-06-04T07:43:55.142Z,6700.00
2018-06-04T07:44:55.114Z,6720.00
2018-06-04T07:45:55.087Z,6636.00
2018-06-04T07:46:55.054Z,6704.00
2018-06-04T07:47:55.033Z,6508.00
2018-06-04T07:48:54.997Z,6328.00
2018-06-04T07:49:55.023Z,6240.00
2018-06-04T07:50:54.940Z,6144.00
2018-06-04T07:51:54.904Z,5972.00
2018-06-04T07:52:54.877Z,5792.00
2018-06-04T07:53:54.848Z,5664.00
2018-06-04T07:54:54.815Z,5528.00
2018-06-04T07:55:54.794Z,5392.00
2018-06-04T07:56:54.763Z,5236.00
2018-06-04T07:57:54.729Z,5064.00
2018-06-04T07:58:54.695Z,4964.00
2018-06-04T07:59:54.674Z,4900.00
2018-06-04T08:00:54.644Z,4844.00
2018-06-04T08:01:54.614Z,4756.00
2018-06-04T08:02:54.587Z,4824.00
2018-06-04T08:03:54.548Z,4784.00
2018-06-04T08:04:54.524Z,4800.00
2018-06-04T08:05:54.495Z,4760.00
2018-06-04T08:06:54.460Z,4424.00
2018-06-04T08:07:54.441Z,4444.00
2018-06-04T08:08:54.408Z,4392.00
2018-06-04T08:09:54.418Z,4148.00
2018-06-04T08:10:54.348Z,4288.00
2018-06-04T08:11:54.314Z,4340.00
2018-06-04T08:12:54.289Z,4652.00
2018-06-04T08:13:54.263Z,4568.00
2018-06-04T08:14:54.234Z,4508.00
2018-06-04T08:15:54.196Z,4468.00
2018-06-04T08:16:54.171Z,4488.00
2018-06-04T08:17:54.177Z,4520.00
2018-06-04T08:18:54.106Z,4644.00
2018-06-04T08:19:54.086Z,4680.00
2018-06-04T08:20:54.061Z,4736.00
2018-06-04T08:21:54.023Z,4740.00
2018-06-04T08:22:53.996Z,4808.00
2018-06-04T08:23:54.002Z,4812.00
2018-06-04T08:24:53.934Z,4788.00
2018-06-04T08:25:53.905Z,4856.00
2018-06-04T08:26:53.876Z,4844.00
2018-06-04T08:27:53.849Z,4852.00
2018-06-04T08:28:53.820Z,4872.00
2018-06-04T08:29:53.786Z,4892.00
2018-06-04T08:30:53.758Z,4888.00
2018-06-04T08:31:53.732Z,4972.00
2018-06-04T08:32:53.702Z,4844.00
2018-06-04T08:33:53.668Z,4952.00
2018-06-04T08:34:53.641Z,4920.00
2018-06-04T08:35:53.607Z,4844.00
2018-06-04T08:36:53.582Z,4648.00
2018-06-04T08:37:53.546Z,4784.00
2018-06-04T08:38:53.520Z,4832.00
2018-06-04T08:39:53.496Z,4724.00
2018-06-04T08:40:53.466Z,4580.00
2018-06-04T08:41:53.435Z,4688.00
2018-06-04T08:42:53.407Z,4788.00
2018-06-04T08:43:53.374Z,4764.00
2018-06-04T08:44:53.343Z,4684.00
2018-06-04T08:45:53.329Z,4736.00
2018-06-04T08:46:53.287Z,4872.00
2018-06-04T08:47:53.256Z,4732.00
2018-06-04T08:48:53.226Z,4716.00
2018-06-04T08:49:53.195Z,4752.00
2018-06-04T08:50:53.180Z,4716.00
2018-06-04T08:51:53.143Z,4724.00
2018-06-04T08:52:53.112Z,4696.00
2018-06-04T08:53:53.083Z,4676.00
2018-06-04T08:54:53.053Z,4704.00
2018-06-04T08:55:53.025Z,4720.00
2018-06-04T08:56:52.992Z,4660.00
2018-06-04T08:57:52.959Z,4684.00
2018-06-04T08:58:52.932Z,4680.00
2018-06-04T08:59:52.906Z,4656.00
2018-06-04T09:00:52.880Z,4664.00
2018-06-04T09:01:52.843Z,4668.00
2018-06-04T09:02:52.815Z,4620.00
2018-06-04T09:03:52.790Z,4644.00
2018-06-04T09:04:52.760Z,4608.00
2018-06-04T09:05:52.731Z,4644.00
2018-06-04T09:06:52.700Z,4724.00
2018-06-04T09:07:52.669Z,4688.00
2018-06-04T09:08:52.642Z,4688.00
2018-06-04T09:09:52.622Z,4640.00
2018-06-04T09:10:52.584Z,4636.00
2018-06-04T09:11:52.555Z,4620.00
2018-06-04T09:12:52.529Z,4636.00
2018-06-04T09:13:52.498Z,4644.00
2018-06-04T09:14:52.468Z,4632.00
2018-06-04T09:15:52.436Z,4640.00
2018-06-04T09:16:52.404Z,4636.00
2018-06-04T09:17:52.385Z,4660.00
2018-06-04T09:18:52.350Z,4660.00
2018-06-04T09:19:52.321Z,4656.00
2018-06-04T09:20:52.288Z,4652.00
2018-06-04T09:21:52.257Z,4696.00
2018-06-04T09:22:52.234Z,4672.00
2018-06-04T09:23:52.206Z,4700.00
2018-06-04T09:24:52.178Z,4672.00
2018-06-04T09:25:52.150Z,4612.00
2018-06-04T09:26:52.120Z,4580.00
2018-06-04T09:27:52.091Z,4656.00
2018-06-04T09:28:52.055Z,4656.00
2018-06-04T09:29:52.025Z,4604.00
2018-06-04T09:30:52.003Z,4616.00
2018-06-04T09:31:51.974Z,4688.00
2018-06-04T09:32:51.947Z,4824.00
2018-06-04T09:33:51.910Z,4724.00
2018-06-04T09:34:51.885Z,4700.00
2018-06-04T09:35:51.860Z,4668.00
2018-06-04T09:36:51.832Z,4628.00
2018-06-04T09:37:51.803Z,4636.00
2018-06-04T09:38:51.773Z,4628.00
2018-06-04T09:39:51.742Z,4620.00
2018-06-04T09:40:51.708Z,4680.00
2018-06-04T09:41:51.678Z,4652.00
2018-06-04T09:42:51.653Z,4672.00
2018-06-04T09:43:51.628Z,4668.00
2018-06-04T09:44:51.600Z,4620.00
2018-06-04T09:45:51.571Z,4572.00
2018-06-04T09:46:51.539Z,4640.00
2018-06-04T09:47:51.510Z,4760.00
2018-06-04T09:48:51.479Z,4860.00
2018-06-04T09:49:51.454Z,4904.00
2018-06-04T09:50:51.426Z,4820.00
2018-06-04T09:51:51.395Z,4772.00
2018-06-04T09:52:51.362Z,4756.00
2018-06-04T09:53:51.340Z,4684.00
2018-06-04T09:54:51.307Z,4632.00
2018-06-04T09:55:51.282Z,4632.00
2018-06-04T09:56:51.254Z,4624.00
2018-06-04T09:57:51.226Z,4492.00
2018-06-04T09:58:51.195Z,4568.00
2018-06-04T09:59:51.207Z,4668.00
2018-06-04T10:00:51.131Z,4724.00
2018-06-04T10:01:51.106Z,4656.00
2018-06-04T10:02:51.078Z,4644.00
2018-06-04T10:03:51.051Z,4668.00
2018-06-04T10:04:51.026Z,4700.00
2018-06-04T10:05:50.993Z,4672.00
2018-06-04T10:06:50.963Z,4792.00
2018-06-04T10:07:50.940Z,4852.00
2018-06-04T10:08:50.910Z,4960.00
2018-06-04T10:09:50.882Z,4876.00
2018-06-04T10:10:50.852Z,4764.00
2018-06-04T10:11:50.820Z,4992.00
2018-06-04T10:12:50.792Z,4988.00
2018-06-04T10:13:50.762Z,4916.00
2018-06-04T10:14:50.735Z,4788.00
2018-06-04T10:15:50.706Z,4632.00
2018-06-04T10:16:50.680Z,4644.00
2018-06-04T10:17:50.649Z,4552.00
2018-06-04T10:18:50.622Z,4556.00
2018-06-04T10:19:50.600Z,4592.00
2018-06-04T10:20:50.569Z,4012.00
2018-06-04T10:21:50.537Z,4652.00
2018-06-04T10:22:50.508Z,4196.00
2018-06-04T10:23:50.477Z,4732.00
2018-06-04T10:24:50.469Z,5140.00
2018-06-04T10:25:50.421Z,4984.00
2018-06-04T10:26:50.392Z,4988.00
2018-06-04T10:27:50.376Z,4944.00
2018-06-04T10:28:50.336Z,4548.00
2018-06-04T10:29:50.309Z,3200.00
2018-06-04T10:30:50.279Z,4852.00
2018-06-04T10:31:50.248Z,4840.00
2018-06-04T10:32:50.224Z,4396.00
2018-06-04T10:33:50.187Z,5112.00
2018-06-04T10:34:50.163Z,4916.00
2018-06-04T10:35:50.137Z,4940.00
2018-06-04T10:36:50.113Z,4864.00
2018-06-04T10:37:50.104Z,4744.00
2018-06-04T10:38:50.051Z,4692.00
2018-06-04T10:39:50.021Z,4748.00
2018-06-04T10:40:49.997Z,4796.00
2018-06-04T10:41:49.967Z,4800.00
2018-06-04T10:42:49.941Z,4752.00
2018-06-04T10:43:49.906Z,4776.00
2018-06-04T10:44:49.873Z,4780.00
2018-06-04T10:45:49.843Z,4868.00
2018-06-04T10:46:49.821Z,4992.00
2018-06-04T10:47:49.795Z,5076.00
2018-06-04T10:48:49.768Z,5084.00
2018-06-04T10:49:49.748Z,4912.00
2018-06-04T10:50:49.710Z,4120.00
2018-06-04T10:51:49.680Z,3964.00
2018-06-04T10:52:49.648Z,4412.00
2018-06-04T10:53:49.625Z,4924.00
2018-06-04T10:54:49.596Z,4912.00
2018-06-04T10:55:49.565Z,5000.00
2018-06-04T10:56:49.533Z,4932.00
2018-06-04T10:57:49.505Z,3100.00
2018-06-04T10:58:49.479Z,3232.00
2018-06-04T10:59:49.455Z,4344.00
2018-06-04T11:00:49.426Z,4904.00
2018-06-04T11:01:49.398Z,4992.00
2018-06-04T11:02:49.368Z,4848.00
2018-06-04T11:03:49.340Z,4952.00
2018-06-04T11:04:49.319Z,3764.00
2018-06-04T11:05:49.277Z,4288.00
2018-06-04T11:06:49.253Z,5036.00
2018-06-04T11:07:49.246Z,5064.00
2018-06-04T11:08:49.202Z,5064.00
2018-06-04T11:09:49.164Z,5000.00
2018-06-04T11:10:49.141Z,4996.00
2018-06-04T11:11:49.116Z,4796.00
2018-06-04T11:12:49.087Z,4744.00
2018-06-04T11:13:49.060Z,4836.00
2018-06-04T11:14:49.031Z,4720.00
2018-06-04T11:15:49.005Z,4740.00
2018-06-04T11:16:48.967Z,4920.00
2018-06-04T11:17:48.943Z,4872.00
2018-06-04T11:18:48.923Z,4960.00
2018-06-04T11:19:48.889Z,4996.00
2018-06-04T11:20:48.901Z,4892.00
2018-06-04T11:21:48.835Z,4772.00
2018-06-04T11:22:48.804Z,4812.00
2018-06-04T11:23:48.775Z,4876.00
2018-06-04T11:24:48.753Z,4872.00
2018-06-04T11:25:48.742Z,4892.00
2018-06-04T11:26:48.693Z,4924.00
2018-06-04T11:27:48.669Z,4944.00
2018-06-04T11:28:48.640Z,4988.00
2018-06-04T11:29:48.613Z,4896.00
2018-06-04T11:30:48.595Z,4980.00
2018-06-04T11:31:48.591Z,4888.00
2018-06-04T11:32:48.686Z,4848.00
2018-06-04T11:33:48.497Z,4876.00
2018-06-04T11:34:48.478Z,4724.00
2018-06-04T11:35:48.474Z,4784.00
2018-06-04T11:36:48.416Z,4840.00
2018-06-04T11:37:48.377Z,4864.00
2018-06-04T11:38:48.355Z,4872.00
2018-06-04T11:39:48.329Z,4872.00
2018-06-04T11:40:48.302Z,4868.00
2018-06-04T11:41:48.268Z,4828.00
2018-06-04T11:42:48.244Z,4860.00
2018-06-04T11:43:48.221Z,4880.00
2018-06-04T11:44:48.194Z,4868.00
2018-06-04T11:45:48.171Z,4840.00
2018-06-04T11:46:48.198Z,4844.00
2018-06-04T11:47:48.104Z,4840.00
2018-06-04T11:48:48.125Z,4836.00
2018-06-04T11:49:48.046Z,4780.00
2018-06-04T11:50:48.021Z,4696.00
2018-06-04T11:51:47.996Z,4592.00
2018-06-04T11:52:47.971Z,4356.00
2018-06-04T11:53:47.960Z,3888.00
2018-06-04T11:54:47.911Z,4444.00
2018-06-04T11:55:47.882Z,4864.00
2018-06-04T11:56:47.864Z,4728.00
2018-06-04T11:57:47.832Z,4728.00
2018-06-04T11:58:47.808Z,4744.00
2018-06-04T11:59:47.770Z,4784.00
2018-06-04T12:00:47.736Z,4832.00
2018-06-04T12:01:47.710Z,4864.00
2018-06-04T12:02:47.684Z,4832.00
2018-06-04T12:03:47.659Z,4788.00
2018-06-04T12:04:47.632Z,4808.00
2018-06-04T12:05:47.605Z,4876.00
2018-06-04T12:06:47.576Z,4904.00
2018-06-04T12:07:47.547Z,4924.00
2018-06-04T12:08:47.516Z,4892.00
2018-06-04T12:09:47.484Z,4852.00
2018-06-04T12:10:47.463Z,4780.00
2018-06-04T12:11:47.512Z,4756.00
2018-06-04T12:12:47.411Z,4752.00
2018-06-04T12:13:47.375Z,4804.00
2018-06-04T12:14:47.352Z,4720.00
2018-06-04T12:15:47.326Z,4616.00
2018-06-04T12:16:47.299Z,4580.00
2018-06-04T12:17:47.273Z,4608.00
2018-06-04T12:18:47.256Z,4632.00
2018-06-04T12:19:47.212Z,4648.00
2018-06-04T12:20:47.183Z,4664.00
2018-06-04T12:21:47.151Z,4684.00
2018-06-04T12:22:47.132Z,4716.00
2018-06-04T12:23:47.103Z,4768.00
2018-06-04T12:24:47.077Z,4788.00